sensor_id;sensor_type;location;lat;lon;timestamp;temperature;humidity
11454;DHT22;5783;55.174;61.310;2024-01-30T06:51:32;31.70;13.10
11454;DHT22;5783;55.174;61.310;2024-01-30T06:54:01;31.30;14.20
11454;DHT22;5783;55.174;61.310;2024-01-30T06:56:29;30.50;14.30
11454;DHT22;5783;55.174;61.310;2024-01-30T07:04:13;29.40;14.60
11454;DHT22;5783;55.174;61.310;2024-01-30T07:06:42;29.20;14.70
11454;DHT22;5783;55.174;61.310;2024-01-30T07:09:10;29.00;14.50
11454;DHT22;5783;55.174;61.310;2024-01-30T07:11:39;28.90;14.50
11454;DHT22;5783;55.174;61.310;2024-01-30T07:14:08;28.80;14.40
11454;DHT22;5783;55.174;61.310;2024-01-30T07:16:37;28.70;14.40
11454;DHT22;5783;55.174;61.310;2024-01-30T07:19:06;28.70;14.50
11454;DHT22;5783;55.174;61.310;2024-01-30T07:21:35;28.70;14.50
11454;DHT22;5783;55.174;61.310;2024-01-30T07:24:05;28.60;14.30
11454;DHT22;5783;55.174;61.310;2024-01-30T07:26:33;28.60;14.30
11454;DHT22;5783;55.174;61.310;2024-01-30T07:29:01;28.60;14.40
11454;DHT22;5783;55.174;61.310;2024-01-30T07:31:30;28.50;14.30
11454;DHT22;5783;55.174;61.310;2024-01-30T07:33:58;28.50;14.50
11454;DHT22;5783;55.174;61.310;2024-01-30T07:36:26;28.40;14.30
11454;DHT22;5783;55.174;61.310;2024-01-30T07:38:54;28.40;14.30
11454;DHT22;5783;55.174;61.310;2024-01-30T07:41:22;28.40;14.40
11454;DHT22;5783;55.174;61.310;2024-01-30T07:43:51;28.40;14.40
11454;DHT22;5783;55.174;61.310;2024-01-30T07:46:20;28.50;14.40
11454;DHT22;5783;55.174;61.310;2024-01-30T07:48:49;28.50;14.40
11454;DHT22;5783;55.174;61.310;2024-01-30T07:51:17;28.40;17.20
11454;DHT22;5783;55.174;61.310;2024-01-30T07:57:13;28.30;15.70
11454;DHT22;5783;55.174;61.310;2024-01-30T07:59:44;28.10;15.40
11454;DHT22;5783;55.174;61.310;2024-01-30T08:02:13;28.10;15.70
11454;DHT22;5783;55.174;61.310;2024-01-30T08:04:42;28.10;15.70
11454;DHT22;5783;55.174;61.310;2024-01-30T08:07:13;28.10;15.20
11454;DHT22;5783;55.174;61.310;2024-01-30T08:09:44;28.10;15.00
11454;DHT22;5783;55.174;61.310;2024-01-30T08:12:13;28.30;15.10
11454;DHT22;5783;55.174;61.310;2024-01-30T08:14:41;28.40;15.00
11454;DHT22;5783;55.174;61.310;2024-01-30T08:17:10;28.40;14.70
11454;DHT22;5783;55.174;61.310;2024-01-30T08:19:39;28.50;14.50
11454;DHT22;5783;55.174;61.310;2024-01-30T08:22:08;28.50;14.70
11454;DHT22;5783;55.174;61.310;2024-01-30T08:24:37;28.60;14.50
11454;DHT22;5783;55.174;61.310;2024-01-30T08:27:06;28.60;14.60
11454;DHT22;5783;55.174;61.310;2024-01-30T08:29:37;28.60;14.50
11454;DHT22;5783;55.174;61.310;2024-01-30T08:32:06;28.60;14.50
11454;DHT22;5783;55.174;61.310;2024-01-30T08:34:35;28.60;14.40
11454;DHT22;5783;55.174;61.310;2024-01-30T08:37:04;28.50;14.80
11454;DHT22;5783;55.174;61.310;2024-01-30T08:39:33;28.40;17.20
11454;DHT22;5783;55.174;61.310;2024-01-30T08:42:02;28.40;17.30
11454;DHT22;5783;55.174;61.310;2024-01-30T08:44:31;28.30;16.70
11454;DHT22;5783;55.174;61.310;2024-01-30T08:47:00;28.20;16.30
11454;DHT22;5783;55.174;61.310;2024-01-30T08:49:29;28.20;18.20
11454;DHT22;5783;55.174;61.310;2024-01-30T08:51:59;28.20;17.90
11454;DHT22;5783;55.174;61.310;2024-01-30T08:54:28;28.30;16.90
11454;DHT22;5783;55.174;61.310;2024-01-30T08:56:57;28.40;16.50
11454;DHT22;5783;55.174;61.310;2024-01-30T08:59:26;28.40;16.10
11454;DHT22;5783;55.174;61.310;2024-01-30T09:01:55;28.50;15.90
11454;DHT22;5783;55.174;61.310;2024-01-30T09:04:25;28.40;15.60
11454;DHT22;5783;55.174;61.310;2024-01-30T09:06:54;28.40;15.70
11454;DHT22;5783;55.174;61.310;2024-01-30T09:09:23;28.50;15.60
11454;DHT22;5783;55.174;61.310;2024-01-30T09:11:52;28.50;15.30
11454;DHT22;5783;55.174;61.310;2024-01-30T09:14:20;28.60;15.30
11454;DHT22;5783;55.174;61.310;2024-01-30T09:16:49;28.50;15.20
11454;DHT22;5783;55.174;61.310;2024-01-30T09:19:18;28.50;15.00
11454;DHT22;5783;55.174;61.310;2024-01-30T09:24:17;28.50;15.60
11454;DHT22;5783;55.174;61.310;2024-01-30T09:26:46;28.50;15.60
11454;DHT22;5783;55.174;61.310;2024-01-30T09:29:15;28.50;15.50
11454;DHT22;5783;55.174;61.310;2024-01-30T09:34:32;28.50;15.50
11454;DHT22;5783;55.174;61.310;2024-01-30T09:37:01;28.40;15.30
11454;DHT22;5783;55.174;61.310;2024-01-30T09:39:29;28.40;15.60
11454;DHT22;5783;55.174;61.310;2024-01-30T09:42:01;28.40;15.90
11454;DHT22;5783;55.174;61.310;2024-01-30T09:44:29;28.40;16.80
11454;DHT22;5783;55.174;61.310;2024-01-30T09:46:58;28.40;16.70
11454;DHT22;5783;55.174;61.310;2024-01-30T09:49:28;28.40;16.20
11454;DHT22;5783;55.174;61.310;2024-01-30T09:51:57;28.40;15.90
11454;DHT22;5783;55.174;61.310;2024-01-30T09:54:26;28.40;15.80
11454;DHT22;5783;55.174;61.310;2024-01-30T09:56:55;28.40;15.70
11454;DHT22;5783;55.174;61.310;2024-01-30T09:59:23;28.40;15.60
11454;DHT22;5783;55.174;61.310;2024-01-30T10:01:52;28.40;15.70
11454;DHT22;5783;55.174;61.310;2024-01-30T10:04:21;28.30;18.40
11454;DHT22;5783;55.174;61.310;2024-01-30T10:06:50;28.20;17.60
11454;DHT22;5783;55.174;61.310;2024-01-30T10:09:21;28.20;17.40
11454;DHT22;5783;55.174;61.310;2024-01-30T10:11:51;28.30;19.40
11454;DHT22;5783;55.174;61.310;2024-01-30T10:14:20;28.30;19.40
11454;DHT22;5783;55.174;61.310;2024-01-30T10:16:48;28.30;17.70
11454;DHT22;5783;55.174;61.310;2024-01-30T10:19:16;28.30;17.00
11454;DHT22;5783;55.174;61.310;2024-01-30T10:21:45;28.30;16.70
11454;DHT22;5783;55.174;61.310;2024-01-30T10:24:14;28.30;16.50
11454;DHT22;5783;55.174;61.310;2024-01-30T10:26:43;28.30;16.50
11454;DHT22;5783;55.174;61.310;2024-01-30T10:29:12;28.20;16.00
11454;DHT22;5783;55.174;61.310;2024-01-30T10:31:40;28.10;16.20
11454;DHT22;5783;55.174;61.310;2024-01-30T10:34:09;28.10;16.40
11454;DHT22;5783;55.174;61.310;2024-01-30T10:36:39;28.10;16.10
11454;DHT22;5783;55.174;61.310;2024-01-30T10:39:09;28.20;16.10
11454;DHT22;5783;55.174;61.310;2024-01-30T10:41:59;28.20;16.10
11454;DHT22;5783;55.174;61.310;2024-01-30T10:44:29;28.20;16.70
11454;DHT22;5783;55.174;61.310;2024-01-30T10:47:00;28.20;16.40
11454;DHT22;5783;55.174;61.310;2024-01-30T10:49:31;28.20;16.10
11454;DHT22;5783;55.174;61.310;2024-01-30T10:52:00;28.10;15.90
11454;DHT22;5783;55.174;61.310;2024-01-30T10:54:31;28.00;15.90
11454;DHT22;5783;55.174;61.310;2024-01-30T10:57:01;28.00;15.90
11454;DHT22;5783;55.174;61.310;2024-01-30T10:59:31;28.00;16.30
11454;DHT22;5783;55.174;61.310;2024-01-30T11:02:02;28.10;16.30
11454;DHT22;5783;55.174;61.310;2024-01-30T11:07:42;28.00;17.10
11454;DHT22;5783;55.174;61.310;2024-01-30T11:10:12;27.90;16.50
11454;DHT22;5783;55.174;61.310;2024-01-30T11:12:41;27.90;16.70
11454;DHT22;5783;55.174;61.310;2024-01-30T11:15:32;27.90;16.10
11454;DHT22;5783;55.174;61.310;2024-01-30T11:18:02;27.90;15.90
11454;DHT22;5783;55.174;61.310;2024-01-30T11:20:32;27.90;15.90
11454;DHT22;5783;55.174;61.310;2024-01-30T11:23:22;27.90;15.60
11454;DHT22;5783;55.174;61.310;2024-01-30T11:25:53;27.80;15.60
11454;DHT22;5783;55.174;61.310;2024-01-30T11:28:22;27.80;15.70
11454;DHT22;5783;55.174;61.310;2024-01-30T11:31:02;27.80;15.70
11454;DHT22;5783;55.174;61.310;2024-01-30T11:33:44;27.90;15.90
11454;DHT22;5783;55.174;61.310;2024-01-30T11:36:14;28.00;15.80
11454;DHT22;5783;55.174;61.310;2024-01-30T11:38:44;27.90;15.50
11454;DHT22;5783;55.174;61.310;2024-01-30T11:41:14;28.00;15.30
11454;DHT22;5783;55.174;61.310;2024-01-30T11:46:36;28.00;15.20
11454;DHT22;5783;55.174;61.310;2024-01-30T11:49:05;28.00;15.10
11454;DHT22;5783;55.174;61.310;2024-01-30T11:51:34;28.10;15.10
11454;DHT22;5783;55.174;61.310;2024-01-30T11:54:03;28.10;15.10
11454;DHT22;5783;55.174;61.310;2024-01-30T11:56:33;28.10;15.00
11454;DHT22;5783;55.174;61.310;2024-01-30T11:59:02;28.10;15.00
11454;DHT22;5783;55.174;61.310;2024-01-30T12:01:30;28.10;15.00
11454;DHT22;5783;55.174;61.310;2024-01-30T12:04:00;28.10;15.00
11454;DHT22;5783;55.174;61.310;2024-01-30T12:06:29;28.10;14.90
11454;DHT22;5783;55.174;61.310;2024-01-30T12:09:02;28.10;15.00
11454;DHT22;5783;55.174;61.310;2024-01-30T12:11:31;28.10;14.90
11454;DHT22;5783;55.174;61.310;2024-01-30T12:14:01;28.10;14.90
11454;DHT22;5783;55.174;61.310;2024-01-30T12:16:31;28.10;14.90
11454;DHT22;5783;55.174;61.310;2024-01-30T12:19:00;28.10;14.80
11454;DHT22;5783;55.174;61.310;2024-01-30T12:21:30;28.10;14.80
11454;DHT22;5783;55.174;61.310;2024-01-30T12:24:00;28.20;14.80
11454;DHT22;5783;55.174;61.310;2024-01-30T12:26:29;28.20;14.80
11454;DHT22;5783;55.174;61.310;2024-01-30T12:28:58;28.10;14.80
11454;DHT22;5783;55.174;61.310;2024-01-30T12:31:28;28.10;14.70
11454;DHT22;5783;55.174;61.310;2024-01-30T12:33:59;28.10;14.80
11454;DHT22;5783;55.174;61.310;2024-01-30T12:36:29;28.10;14.70
11454;DHT22;5783;55.174;61.310;2024-01-30T12:38:58;28.10;14.90
11454;DHT22;5783;55.174;61.310;2024-01-30T12:41:27;28.10;14.70
11454;DHT22;5783;55.174;61.310;2024-01-30T12:43:58;28.10;14.70
11454;DHT22;5783;55.174;61.310;2024-01-30T12:46:47;28.10;14.90
11454;DHT22;5783;55.174;61.310;2024-01-30T12:49:16;28.10;14.80
11454;DHT22;5783;55.174;61.310;2024-01-30T12:51:45;28.00;14.70
11454;DHT22;5783;55.174;61.310;2024-01-30T12:54:14;28.10;14.80
11454;DHT22;5783;55.174;61.310;2024-01-30T12:56:43;28.00;14.70
11454;DHT22;5783;55.174;61.310;2024-01-30T12:59:12;28.00;14.70
11454;DHT22;5783;55.174;61.310;2024-01-30T13:01:41;28.00;14.70
11454;DHT22;5783;55.174;61.310;2024-01-30T13:04:10;28.00;14.70
11454;DHT22;5783;55.174;61.310;2024-01-30T13:06:39;28.00;14.60
11454;DHT22;5783;55.174;61.310;2024-01-30T13:09:07;28.00;14.70
11454;DHT22;5783;55.174;61.310;2024-01-30T13:11:35;28.00;14.70
11454;DHT22;5783;55.174;61.310;2024-01-30T13:14:04;28.00;15.10
11454;DHT22;5783;55.174;61.310;2024-01-30T13:16:32;27.90;14.80
11454;DHT22;5783;55.174;61.310;2024-01-30T13:19:01;27.80;14.70
11454;DHT22;5783;55.174;61.310;2024-01-30T13:21:30;27.90;14.80
11454;DHT22;5783;55.174;61.310;2024-01-30T13:23:59;27.80;14.60
11454;DHT22;5783;55.174;61.310;2024-01-30T13:26:28;27.90;14.70
11454;DHT22;5783;55.174;61.310;2024-01-30T13:28:57;27.90;14.80
11454;DHT22;5783;55.174;61.310;2024-01-30T13:31:27;27.80;14.90
11454;DHT22;5783;55.174;61.310;2024-01-30T13:33:56;27.80;14.90
11454;DHT22;5783;55.174;61.310;2024-01-30T13:36:25;27.90;14.90
11454;DHT22;5783;55.174;61.310;2024-01-30T13:38:54;27.90;14.80
11454;DHT22;5783;55.174;61.310;2024-01-30T13:41:23;27.90;14.80
11454;DHT22;5783;55.174;61.310;2024-01-30T13:43:52;27.90;14.80
11454;DHT22;5783;55.174;61.310;2024-01-30T13:46:21;27.90;14.80
11454;DHT22;5783;55.174;61.310;2024-01-30T13:48:51;27.90;14.80
11454;DHT22;5783;55.174;61.310;2024-01-30T13:51:20;27.90;14.70
11454;DHT22;5783;55.174;61.310;2024-01-30T13:53:49;27.90;14.80
11454;DHT22;5783;55.174;61.310;2024-01-30T13:56:19;27.90;15.40
11454;DHT22;5783;55.174;61.310;2024-01-30T13:59:07;27.90;15.80
11454;DHT22;5783;55.174;61.310;2024-01-30T14:01:38;27.90;15.20
11454;DHT22;5783;55.174;61.310;2024-01-30T14:04:07;27.80;15.00
11454;DHT22;5783;55.174;61.310;2024-01-30T14:06:38;27.80;14.90
11454;DHT22;5783;55.174;61.310;2024-01-30T14:09:09;27.70;14.50
11454;DHT22;5783;55.174;61.310;2024-01-30T14:11:40;27.70;14.90
11454;DHT22;5783;55.174;61.310;2024-01-30T14:14:10;27.70;14.90
11454;DHT22;5783;55.174;61.310;2024-01-30T14:16:39;27.80;15.00
11454;DHT22;5783;55.174;61.310;2024-01-30T14:19:08;27.80;14.90
11454;DHT22;5783;55.174;61.310;2024-01-30T14:21:37;27.80;14.60
11454;DHT22;5783;55.174;61.310;2024-01-30T14:24:06;27.80;14.70
11454;DHT22;5783;55.174;61.310;2024-01-30T14:26:36;27.90;14.50
11454;DHT22;5783;55.174;61.310;2024-01-30T14:29:05;27.80;14.60
11454;DHT22;5783;55.174;61.310;2024-01-30T14:31:34;27.90;14.50
11454;DHT22;5783;55.174;61.310;2024-01-30T14:34:03;27.90;14.80
11454;DHT22;5783;55.174;61.310;2024-01-30T14:36:32;27.90;14.70
11454;DHT22;5783;55.174;61.310;2024-01-30T14:39:01;28.00;14.70
11454;DHT22;5783;55.174;61.310;2024-01-30T14:41:30;28.00;14.50
11454;DHT22;5783;55.174;61.310;2024-01-30T14:44:00;28.10;14.70
11454;DHT22;5783;55.174;61.310;2024-01-30T14:46:29;28.10;14.60
11454;DHT22;5783;55.174;61.310;2024-01-30T14:48:59;28.10;14.70
11454;DHT22;5783;55.174;61.310;2024-01-30T14:51:31;28.10;14.60
11454;DHT22;5783;55.174;61.310;2024-01-30T14:54:01;28.20;14.70
11454;DHT22;5783;55.174;61.310;2024-01-30T14:56:30;28.20;15.20
11454;DHT22;5783;55.174;61.310;2024-01-30T14:58:59;28.20;14.80
11454;DHT22;5783;55.174;61.310;2024-01-30T15:01:29;28.20;15.00
11454;DHT22;5783;55.174;61.310;2024-01-30T15:03:57;28.20;15.20
11454;DHT22;5783;55.174;61.310;2024-01-30T15:06:25;28.30;15.40
11454;DHT22;5783;55.174;61.310;2024-01-30T15:08:53;28.40;15.30
11454;DHT22;5783;55.174;61.310;2024-01-30T15:11:22;28.40;15.30
11454;DHT22;5783;55.174;61.310;2024-01-30T15:13:50;28.40;15.30
11454;DHT22;5783;55.174;61.310;2024-01-30T15:16:18;28.50;15.40
11454;DHT22;5783;55.174;61.310;2024-01-30T15:18:46;28.50;15.40
11454;DHT22;5783;55.174;61.310;2024-01-30T15:21:14;28.50;15.50
11454;DHT22;5783;55.174;61.310;2024-01-30T15:23:44;28.50;15.50
11454;DHT22;5783;55.174;61.310;2024-01-30T15:26:12;28.50;15.50
11454;DHT22;5783;55.174;61.310;2024-01-30T15:28:41;28.60;15.40
11454;DHT22;5783;55.174;61.310;2024-01-30T15:31:09;28.60;15.50
11454;DHT22;5783;55.174;61.310;2024-01-30T15:33:39;28.70;15.50
11454;DHT22;5783;55.174;61.310;2024-01-30T15:36:08;28.80;15.40
11454;DHT22;5783;55.174;61.310;2024-01-30T15:38:38;28.80;15.40
11454;DHT22;5783;55.174;61.310;2024-01-30T15:41:06;28.80;15.40
11454;DHT22;5783;55.174;61.310;2024-01-30T15:43:34;28.90;15.40
11454;DHT22;5783;55.174;61.310;2024-01-30T15:46:03;28.90;15.50
11454;DHT22;5783;55.174;61.310;2024-01-30T15:48:31;28.90;15.50
11454;DHT22;5783;55.174;61.310;2024-01-30T15:50:59;28.90;15.40
11454;DHT22;5783;55.174;61.310;2024-01-30T15:53:27;29.00;15.50
11454;DHT22;5783;55.174;61.310;2024-01-30T15:55:56;28.90;15.40
11454;DHT22;5783;55.174;61.310;2024-01-30T15:58:25;28.90;15.50
11454;DHT22;5783;55.174;61.310;2024-01-30T16:00:53;28.90;15.60
11454;DHT22;5783;55.174;61.310;2024-01-30T16:03:23;28.90;15.50
11454;DHT22;5783;55.174;61.310;2024-01-30T16:05:51;28.90;15.50
11454;DHT22;5783;55.174;61.310;2024-01-30T16:08:19;28.90;15.50
11454;DHT22;5783;55.174;61.310;2024-01-30T16:10:47;28.90;15.50
11454;DHT22;5783;55.174;61.310;2024-01-30T16:13:16;28.90;15.50
11454;DHT22;5783;55.174;61.310;2024-01-30T16:15:44;28.90;15.40
11454;DHT22;5783;55.174;61.310;2024-01-30T16:18:12;29.00;15.40
11454;DHT22;5783;55.174;61.310;2024-01-30T16:20:40;29.00;15.40
11454;DHT22;5783;55.174;61.310;2024-01-30T16:23:09;29.10;15.40
11454;DHT22;5783;55.174;61.310;2024-01-30T16:25:37;29.10;15.40
11454;DHT22;5783;55.174;61.310;2024-01-30T16:28:05;29.20;15.20
11454;DHT22;5783;55.174;61.310;2024-01-30T16:30:33;29.20;15.30
11454;DHT22;5783;55.174;61.310;2024-01-30T16:33:01;29.20;15.20
11454;DHT22;5783;55.174;61.310;2024-01-30T16:35:29;29.20;15.40
11454;DHT22;5783;55.174;61.310;2024-01-30T16:37:58;29.20;15.30
11454;DHT22;5783;55.174;61.310;2024-01-30T16:40:26;29.20;15.20
11454;DHT22;5783;55.174;61.310;2024-01-30T16:42:54;29.20;15.20
11454;DHT22;5783;55.174;61.310;2024-01-30T16:45:22;29.20;15.20
11454;DHT22;5783;55.174;61.310;2024-01-30T16:47:50;29.30;15.30
11454;DHT22;5783;55.174;61.310;2024-01-30T16:50:19;29.30;15.20
11454;DHT22;5783;55.174;61.310;2024-01-30T16:52:48;29.30;15.20
11454;DHT22;5783;55.174;61.310;2024-01-30T16:55:16;29.30;15.10
11454;DHT22;5783;55.174;61.310;2024-01-30T16:57:46;29.30;15.20
11454;DHT22;5783;55.174;61.310;2024-01-30T17:00:15;29.40;15.20
11454;DHT22;5783;55.174;61.310;2024-01-30T17:02:43;29.40;15.20
11454;DHT22;5783;55.174;61.310;2024-01-30T17:05:11;29.40;15.20
11454;DHT22;5783;55.174;61.310;2024-01-30T17:07:39;29.40;15.20
11454;DHT22;5783;55.174;61.310;2024-01-30T17:10:07;29.40;15.30
11454;DHT22;5783;55.174;61.310;2024-01-30T17:12:36;29.50;15.20
11454;DHT22;5783;55.174;61.310;2024-01-30T17:15:04;29.50;15.10
11454;DHT22;5783;55.174;61.310;2024-01-30T17:17:32;29.50;15.10
11454;DHT22;5783;55.174;61.310;2024-01-30T17:20:00;29.50;15.10
11454;DHT22;5783;55.174;61.310;2024-01-30T17:22:29;29.40;15.10
11454;DHT22;5783;55.174;61.310;2024-01-30T17:24:57;29.50;15.10
11454;DHT22;5783;55.174;61.310;2024-01-30T17:27:26;29.50;15.10
11454;DHT22;5783;55.174;61.310;2024-01-30T17:29:54;29.50;15.20
11454;DHT22;5783;55.174;61.310;2024-01-30T17:32:22;29.50;15.00
11454;DHT22;5783;55.174;61.310;2024-01-30T17:34:51;29.50;15.00
11454;DHT22;5783;55.174;61.310;2024-01-30T17:37:19;29.50;15.00
11454;DHT22;5783;55.174;61.310;2024-01-30T17:39:48;29.60;15.00
11454;DHT22;5783;55.174;61.310;2024-01-30T17:42:16;29.50;14.90
11454;DHT22;5783;55.174;61.310;2024-01-30T17:44:45;29.50;15.00
11454;DHT22;5783;55.174;61.310;2024-01-30T17:47:14;29.60;15.00
11454;DHT22;5783;55.174;61.310;2024-01-30T17:49:42;29.60;15.00
11454;DHT22;5783;55.174;61.310;2024-01-30T17:52:10;29.60;14.80
11454;DHT22;5783;55.174;61.310;2024-01-30T17:54:38;29.60;14.90
11454;DHT22;5783;55.174;61.310;2024-01-30T17:57:06;29.60;14.90
11454;DHT22;5783;55.174;61.310;2024-01-30T17:59:35;29.60;14.90
11454;DHT22;5783;55.174;61.310;2024-01-30T18:02:04;29.60;14.90
11454;DHT22;5783;55.174;61.310;2024-01-30T18:04:33;29.60;15.00
11454;DHT22;5783;55.174;61.310;2024-01-30T18:07:03;29.50;14.90
11454;DHT22;5783;55.174;61.310;2024-01-30T18:09:31;29.60;15.00
11454;DHT22;5783;55.174;61.310;2024-01-30T18:11:59;29.50;15.00
11454;DHT22;5783;55.174;61.310;2024-01-30T18:14:28;29.60;15.00
11454;DHT22;5783;55.174;61.310;2024-01-30T18:16:56;29.60;15.00
11454;DHT22;5783;55.174;61.310;2024-01-30T18:19:25;29.50;14.90
11454;DHT22;5783;55.174;61.310;2024-01-30T18:21:53;29.50;14.90
11454;DHT22;5783;55.174;61.310;2024-01-30T18:24:21;29.50;15.00
11454;DHT22;5783;55.174;61.310;2024-01-30T18:26:51;29.50;15.00
11454;DHT22;5783;55.174;61.310;2024-01-30T18:29:19;29.50;15.00
11454;DHT22;5783;55.174;61.310;2024-01-30T18:31:47;29.60;15.00
11454;DHT22;5783;55.174;61.310;2024-01-30T18:34:15;29.50;15.00
11454;DHT22;5783;55.174;61.310;2024-01-30T18:36:43;29.50;15.00
11454;DHT22;5783;55.174;61.310;2024-01-30T18:39:11;29.60;15.00
11454;DHT22;5783;55.174;61.310;2024-01-30T18:41:39;29.50;14.90
11454;DHT22;5783;55.174;61.310;2024-01-30T18:44:08;29.50;15.00
11454;DHT22;5783;55.174;61.310;2024-01-30T18:46:36;29.50;15.00
11454;DHT22;5783;55.174;61.310;2024-01-30T18:49:04;29.50;15.00
11454;DHT22;5783;55.174;61.310;2024-01-30T18:51:32;29.50;15.00
11454;DHT22;5783;55.174;61.310;2024-01-30T18:54:00;29.50;15.00
11454;DHT22;5783;55.174;61.310;2024-01-30T18:56:28;29.50;15.00
11454;DHT22;5783;55.174;61.310;2024-01-30T18:58:56;29.50;15.10
11454;DHT22;5783;55.174;61.310;2024-01-30T19:01:25;29.50;15.00
11454;DHT22;5783;55.174;61.310;2024-01-30T19:03:54;29.50;15.00
11454;DHT22;5783;55.174;61.310;2024-01-30T19:06:22;29.60;15.00
11454;DHT22;5783;55.174;61.310;2024-01-30T19:08:50;29.50;15.00
11454;DHT22;5783;55.174;61.310;2024-01-30T19:11:19;29.60;15.00
11454;DHT22;5783;55.174;61.310;2024-01-30T19:13:47;29.60;14.90
11454;DHT22;5783;55.174;61.310;2024-01-30T19:16:15;29.60;14.90
11454;DHT22;5783;55.174;61.310;2024-01-30T19:18:43;29.60;14.90
11454;DHT22;5783;55.174;61.310;2024-01-30T19:21:11;29.70;14.80
11454;DHT22;5783;55.174;61.310;2024-01-30T19:23:40;29.70;14.90
11454;DHT22;5783;55.174;61.310;2024-01-30T19:26:08;29.70;14.80
11454;DHT22;5783;55.174;61.310;2024-01-30T19:28:36;29.70;14.90
11454;DHT22;5783;55.174;61.310;2024-01-30T19:31:04;29.60;14.80
11454;DHT22;5783;55.174;61.310;2024-01-30T19:33:34;29.70;14.90
11454;DHT22;5783;55.174;61.310;2024-01-30T19:36:02;29.70;14.90
11454;DHT22;5783;55.174;61.310;2024-01-30T19:38:32;29.60;14.90
11454;DHT22;5783;55.174;61.310;2024-01-30T19:41:01;29.60;14.80
11454;DHT22;5783;55.174;61.310;2024-01-30T19:43:30;29.60;14.90
11454;DHT22;5783;55.174;61.310;2024-01-30T19:45:59;29.70;14.90
11454;DHT22;5783;55.174;61.310;2024-01-30T19:48:27;29.70;15.00
11454;DHT22;5783;55.174;61.310;2024-01-30T19:50:55;29.70;14.80
11454;DHT22;5783;55.174;61.310;2024-01-30T19:53:23;29.70;14.90
11454;DHT22;5783;55.174;61.310;2024-01-30T19:55:51;29.70;14.80
11454;DHT22;5783;55.174;61.310;2024-01-30T19:58:19;29.70;14.90
11454;DHT22;5783;55.174;61.310;2024-01-30T20:00:48;29.70;14.80
11454;DHT22;5783;55.174;61.310;2024-01-30T20:03:16;29.70;14.70
11454;DHT22;5783;55.174;61.310;2024-01-30T20:05:44;29.70;14.70
11454;DHT22;5783;55.174;61.310;2024-01-30T20:08:12;29.70;14.80
11454;DHT22;5783;55.174;61.310;2024-01-30T20:10:41;29.70;14.70
11454;DHT22;5783;55.174;61.310;2024-01-30T20:13:09;29.70;14.80
11454;DHT22;5783;55.174;61.310;2024-01-30T20:15:38;29.70;14.70
11454;DHT22;5783;55.174;61.310;2024-01-30T20:18:07;29.70;14.80
11454;DHT22;5783;55.174;61.310;2024-01-30T20:20:35;29.70;14.80
11454;DHT22;5783;55.174;61.310;2024-01-30T20:23:05;29.70;14.80
11454;DHT22;5783;55.174;61.310;2024-01-30T20:25:33;29.70;14.80
11454;DHT22;5783;55.174;61.310;2024-01-30T20:28:01;29.60;14.80
11454;DHT22;5783;55.174;61.310;2024-01-30T20:30:30;29.70;14.80
11454;DHT22;5783;55.174;61.310;2024-01-30T20:32:58;29.70;14.80
11454;DHT22;5783;55.174;61.310;2024-01-30T20:35:26;29.70;14.80
11454;DHT22;5783;55.174;61.310;2024-01-30T20:37:55;29.70;14.80
11454;DHT22;5783;55.174;61.310;2024-01-30T20:40:23;29.70;14.80
11454;DHT22;5783;55.174;61.310;2024-01-30T20:42:51;29.70;14.80
11454;DHT22;5783;55.174;61.310;2024-01-30T20:45:19;29.70;14.80
11454;DHT22;5783;55.174;61.310;2024-01-30T20:47:47;29.70;14.80
11454;DHT22;5783;55.174;61.310;2024-01-30T20:50:16;29.80;15.00
11454;DHT22;5783;55.174;61.310;2024-01-30T20:52:44;29.70;14.80
11454;DHT22;5783;55.174;61.310;2024-01-30T20:55:12;29.80;14.80
11454;DHT22;5783;55.174;61.310;2024-01-30T20:57:41;29.70;14.80
11454;DHT22;5783;55.174;61.310;2024-01-30T21:00:09;29.70;14.80
11454;DHT22;5783;55.174;61.310;2024-01-30T21:02:39;29.80;14.90
11454;DHT22;5783;55.174;61.310;2024-01-30T21:05:08;29.70;14.60
11454;DHT22;5783;55.174;61.310;2024-01-30T21:07:36;29.70;14.80
11454;DHT22;5783;55.174;61.310;2024-01-30T21:10:04;29.70;14.80
11454;DHT22;5783;55.174;61.310;2024-01-30T21:12:34;29.70;14.90
11454;DHT22;5783;55.174;61.310;2024-01-30T21:15:02;29.70;14.90
11454;DHT22;5783;55.174;61.310;2024-01-30T21:17:31;29.70;14.80
11454;DHT22;5783;55.174;61.310;2024-01-30T21:19:59;29.70;14.80
11454;DHT22;5783;55.174;61.310;2024-01-30T21:22:27;29.70;14.80
11454;DHT22;5783;55.174;61.310;2024-01-30T21:24:55;29.70;14.80
11454;DHT22;5783;55.174;61.310;2024-01-30T21:27:23;29.80;14.70
11454;DHT22;5783;55.174;61.310;2024-01-30T21:29:52;29.80;14.80
11454;DHT22;5783;55.174;61.310;2024-01-30T21:32:20;29.80;14.70
11454;DHT22;5783;55.174;61.310;2024-01-30T21:34:48;29.80;14.80
11454;DHT22;5783;55.174;61.310;2024-01-30T21:37:18;29.80;14.70
11454;DHT22;5783;55.174;61.310;2024-01-30T21:39:47;29.80;14.70
11454;DHT22;5783;55.174;61.310;2024-01-30T21:42:16;29.90;14.80
11454;DHT22;5783;55.174;61.310;2024-01-30T21:44:46;29.90;14.70
11454;DHT22;5783;55.174;61.310;2024-01-30T21:47:14;29.90;14.70
11454;DHT22;5783;55.174;61.310;2024-01-30T21:49:42;29.90;14.80
11454;DHT22;5783;55.174;61.310;2024-01-30T21:52:11;29.90;14.90
11454;DHT22;5783;55.174;61.310;2024-01-30T21:54:39;29.90;14.80
11454;DHT22;5783;55.174;61.310;2024-01-30T21:57:07;29.90;14.80
11454;DHT22;5783;55.174;61.310;2024-01-30T21:59:35;29.90;14.70
11454;DHT22;5783;55.174;61.310;2024-01-30T22:02:03;29.90;14.80
11454;DHT22;5783;55.174;61.310;2024-01-30T22:04:31;29.90;14.80
11454;DHT22;5783;55.174;61.310;2024-01-30T22:07:00;29.90;14.70
11454;DHT22;5783;55.174;61.310;2024-01-30T22:09:28;29.90;14.70
11454;DHT22;5783;55.174;61.310;2024-01-30T22:11:56;29.90;14.70
11454;DHT22;5783;55.174;61.310;2024-01-30T22:14:24;29.90;14.70
11454;DHT22;5783;55.174;61.310;2024-01-30T22:16:52;30.00;14.70
11454;DHT22;5783;55.174;61.310;2024-01-30T22:19:20;30.00;14.70
11454;DHT22;5783;55.174;61.310;2024-01-30T22:21:48;29.90;14.70
11454;DHT22;5783;55.174;61.310;2024-01-30T22:24:17;29.90;14.70
11454;DHT22;5783;55.174;61.310;2024-01-30T22:26:45;30.00;14.70
11454;DHT22;5783;55.174;61.310;2024-01-30T22:29:13;30.00;14.50
11454;DHT22;5783;55.174;61.310;2024-01-30T22:31:41;30.00;14.60
11454;DHT22;5783;55.174;61.310;2024-01-30T22:34:09;30.00;14.70
11454;DHT22;5783;55.174;61.310;2024-01-30T22:36:38;30.00;14.70
11454;DHT22;5783;55.174;61.310;2024-01-30T22:39:06;30.00;14.70
11454;DHT22;5783;55.174;61.310;2024-01-30T22:41:54;30.00;14.80
11454;DHT22;5783;55.174;61.310;2024-01-30T22:44:22;29.90;14.70
11454;DHT22;5783;55.174;61.310;2024-01-30T22:46:50;29.90;14.70
11454;DHT22;5783;55.174;61.310;2024-01-30T22:49:18;29.90;14.80
11454;DHT22;5783;55.174;61.310;2024-01-30T22:51:47;29.90;14.70